Chesterfield, Idaho
Current Conditions -  °F | °C
As of 12:53 PM on Wednesday 28 Jan 2015 (Local Time) from KPIH Reporting Station
Haze Haze  
Wind Chill: 28°   Ceiling: 500
Heat Index: 37°   Visibility: 5mi
Dew Point: 37°   Wind: 14mph
Humidity: 100%   Direction: 230°SW
Pressure: 30.33"   Gusts: NA
Location:  42.811°N, 111.938°W
Report Text: KPIH 281953Z 23012KT 5SM BR OVC005 03/03 A3033 RMK AO2 SLP278 T00280028
Loading
Personal Weather Stations






























Interactive Weather Map New forecast layout! Learn more

10-Day Weather Forecast

Advertisements
Track Severe Weather on mobile